createdAt,value
2018-08-19T00:00:42.804Z,18.16
2018-08-19T00:03:11.351Z,18.26
2018-08-19T00:05:40.289Z,18.35
2018-08-19T00:08:08.909Z,18.40
2018-08-19T00:11:12.726Z,18.55
2018-08-19T00:13:41.294Z,18.51
2018-08-19T00:16:10.831Z,18.49
2018-08-19T00:18:39.402Z,18.40
2018-08-19T00:21:09.734Z,18.34
2018-08-19T00:23:43.563Z,18.44
2018-08-19T00:26:13.317Z,18.53
2018-08-19T00:28:42.226Z,18.47
2018-08-19T00:31:10.721Z,18.47
2018-08-19T00:33:39.270Z,18.50
2018-08-19T00:36:25.986Z,18.43
2018-08-19T00:38:55.064Z,18.39
2018-08-19T00:41:23.595Z,18.27
2018-08-19T00:43:52.133Z,18.21
2018-08-19T00:46:23.665Z,18.42
2018-08-19T00:48:52.218Z,18.37
2018-08-19T00:51:20.902Z,18.28
2018-08-19T00:53:49.486Z,18.26
2018-08-19T00:56:18.047Z,18.15
2018-08-19T00:58:46.733Z,18.17
2018-08-19T01:01:29.059Z,18.24
2018-08-19T01:03:58.773Z,18.37
2018-08-19T01:06:27.444Z,18.38
2018-08-19T01:08:56.509Z,18.45
2018-08-19T01:11:31.456Z,18.30
2018-08-19T01:14:00.164Z,18.25
2018-08-19T01:16:28.814Z,18.32
2018-08-19T01:19:01.312Z,18.23
2018-08-19T01:21:31.349Z,18.15
2018-08-19T01:24:00.890Z,18.13
2018-08-19T01:26:33.279Z,18.17
2018-08-19T01:29:01.997Z,18.14
2018-08-19T01:31:30.475Z,18.16
2018-08-19T01:33:59.136Z,18.01
2018-08-19T01:36:29.332Z,18.03
2018-08-19T01:38:58.433Z,18.09
2018-08-19T01:41:26.955Z,17.98
2018-08-19T01:44:17.039Z,18.06
2018-08-19T01:46:48.637Z,17.94
2018-08-19T01:49:17.213Z,17.93
2018-08-19T01:51:45.964Z,17.73
2018-08-19T01:54:19.757Z,17.58
2018-08-19T01:56:52.484Z,17.49
2018-08-19T01:59:21.204Z,17.41
2018-08-19T02:01:53.581Z,17.37
2018-08-19T02:04:22.400Z,17.52
2018-08-19T02:06:50.919Z,17.49
2018-08-19T02:09:20.113Z,17.33
2018-08-19T02:11:52.425Z,17.34
2018-08-19T02:14:21.902Z,17.30
2018-08-19T02:16:51.253Z,17.33
2018-08-19T02:19:19.807Z,17.57
2018-08-19T02:21:49.193Z,17.59
2018-08-19T02:24:18.227Z,17.66
2018-08-19T02:26:46.841Z,17.61
2018-08-19T02:29:33.180Z,17.62
2018-08-19T02:32:06.020Z,17.61
2018-08-19T02:34:36.632Z,17.42
2018-08-19T02:37:10.673Z,17.46
2018-08-19T02:39:42.020Z,17.44
2018-08-19T02:42:30.410Z,17.31
2018-08-19T02:45:04.518Z,17.24
2018-08-19T02:47:33.750Z,17.13
2018-08-19T02:50:02.571Z,17.05
2018-08-19T02:52:34.410Z,16.98
2018-08-19T02:55:04.653Z,16.99
2018-08-19T02:57:33.988Z,17.13
2018-08-19T03:00:03.424Z,17.00
2018-08-19T03:02:37.419Z,16.97
2018-08-19T03:05:10.465Z,16.97
2018-08-19T03:07:39.122Z,16.97
2018-08-19T03:10:16.901Z,17.11
2018-08-19T03:12:45.883Z,16.95
2018-08-19T03:15:16.086Z,17.04
2018-08-19T03:17:47.491Z,16.97
2018-08-19T03:20:15.966Z,16.96
2018-08-19T03:22:44.540Z,16.87
2018-08-19T03:25:13.301Z,16.79
2018-08-19T03:27:41.808Z,16.74
2018-08-19T03:30:11.794Z,16.65
2018-08-19T03:32:48.545Z,16.63
2018-08-19T03:35:18.288Z,16.68
2018-08-19T03:37:46.986Z,16.72
2018-08-19T03:40:15.649Z,16.72
2018-08-19T03:42:44.146Z,16.75
2018-08-19T03:45:20.670Z,16.72
2018-08-19T03:47:50.359Z,16.72
2018-08-19T03:50:22.893Z,16.80
2018-08-19T03:52:52.145Z,16.77
2018-08-19T03:55:25.856Z,16.94
2018-08-19T03:57:57.896Z,16.97
2018-08-19T04:00:27.247Z,16.95
2018-08-19T04:02:55.819Z,16.88
2018-08-19T04:05:41.544Z,16.96
2018-08-19T04:08:11.336Z,17.07
2018-08-19T04:10:41.286Z,17.08
2018-08-19T04:13:25.007Z,17.02
2018-08-19T04:15:54.886Z,17.06
2018-08-19T04:18:27.547Z,17.06
2018-08-19T04:20:58.115Z,16.96
2018-08-19T04:23:27.040Z,16.94
2018-08-19T04:25:56.010Z,16.90
2018-08-19T04:28:25.090Z,16.93
2018-08-19T04:30:55.435Z,16.91
2018-08-19T04:33:29.317Z,16.97
2018-08-19T04:35:57.841Z,16.90
2018-08-19T04:38:27.833Z,16.89
2018-08-19T04:40:56.617Z,16.92
2018-08-19T04:43:26.987Z,16.86
2018-08-19T04:45:55.616Z,16.79
2018-08-19T04:48:25.030Z,16.72
2018-08-19T04:50:54.837Z,16.98
2018-08-19T04:53:23.488Z,17.01
2018-08-19T04:55:52.540Z,16.85
2018-08-19T04:58:21.054Z,16.89
2018-08-19T05:00:50.548Z,16.98
2018-08-19T05:03:19.175Z,17.11
2018-08-19T05:05:47.661Z,17.11
2018-08-19T05:08:16.308Z,17.10
2018-08-19T05:10:44.737Z,17.16
2018-08-19T05:13:13.822Z,17.17
2018-08-19T05:15:42.823Z,17.13
2018-08-19T05:18:11.368Z,17.09
2018-08-19T05:20:39.906Z,16.99
2018-08-19T05:23:08.873Z,17.24
2018-08-19T05:26:12.177Z,17.19
2018-08-19T05:28:40.983Z,17.30
2018-08-19T05:31:09.563Z,17.22
2018-08-19T05:33:38.082Z,17.40
2018-08-19T05:36:06.596Z,17.19
2018-08-19T05:38:35.153Z,17.38
2018-08-19T05:41:03.674Z,17.29
2018-08-19T05:43:32.895Z,17.53
2018-08-19T05:46:01.865Z,17.54
2018-08-19T05:48:30.733Z,17.63
2018-08-19T05:50:59.464Z,17.67
2018-08-19T05:53:28.001Z,17.81
2018-08-19T05:55:56.538Z,17.65
2018-08-19T05:58:25.066Z,17.90
2018-08-19T06:01:00.993Z,17.96
2018-08-19T06:03:30.226Z,17.71
2018-08-19T06:05:59.265Z,17.93
2018-08-19T06:08:27.829Z,17.96
2018-08-19T06:10:56.310Z,18.18
2018-08-19T06:13:25.690Z,18.13
2018-08-19T06:15:54.181Z,18.06
2018-08-19T06:18:22.708Z,18.28
2018-08-19T06:20:51.369Z,18.03
2018-08-19T06:23:21.577Z,18.42
2018-08-19T06:25:50.207Z,18.52
2018-08-19T06:28:18.804Z,18.72
2018-08-19T06:30:47.312Z,18.76
2018-08-19T06:33:16.056Z,18.76
2018-08-19T06:35:44.595Z,18.88
2018-08-19T06:38:13.210Z,18.93
2018-08-19T06:40:41.796Z,19.11
2018-08-19T06:43:11.025Z,19.10
2018-08-19T06:45:39.587Z,19.31
2018-08-19T06:48:08.563Z,19.19
2018-08-19T06:50:37.303Z,19.29
2018-08-19T06:53:05.975Z,19.15
2018-08-19T06:55:34.516Z,19.26
2018-08-19T06:58:03.041Z,19.17
2018-08-19T07:00:32.536Z,18.98
2018-08-19T07:03:02.571Z,19.07
2018-08-19T07:05:31.682Z,19.07
2018-08-19T07:08:00.324Z,19.09
2018-08-19T07:10:34.301Z,19.24
2018-08-19T07:13:07.177Z,19.36
2018-08-19T07:15:36.953Z,19.28
2018-08-19T07:18:06.528Z,19.40
2018-08-19T07:20:35.687Z,19.53
2018-08-19T07:23:04.250Z,19.62
2018-08-19T07:25:32.785Z,19.77
2018-08-19T07:28:01.326Z,19.77
2018-08-19T07:30:29.918Z,19.65
2018-08-19T07:32:58.457Z,19.59
2018-08-19T07:35:27.041Z,19.50
2018-08-19T07:37:55.567Z,19.31
2018-08-19T07:40:24.100Z,19.55
2018-08-19T07:42:53.525Z,19.74
2018-08-19T07:45:22.283Z,19.79
2018-08-19T07:47:51.043Z,19.79
2018-08-19T07:50:19.606Z,19.76
2018-08-19T07:52:48.211Z,19.97
2018-08-19T07:55:16.882Z,20.12
2018-08-19T07:57:45.434Z,20.18
2018-08-19T08:00:14.029Z,20.22
2018-08-19T08:02:42.600Z,20.16
2018-08-19T08:05:11.730Z,20.67
2018-08-19T08:07:48.032Z,20.84
2018-08-19T08:10:20.823Z,20.83
2018-08-19T08:12:54.506Z,20.92
2018-08-19T08:15:23.471Z,20.53
2018-08-19T08:17:52.086Z,20.64
2018-08-19T08:20:20.621Z,20.87
2018-08-19T08:22:49.273Z,20.81
2018-08-19T08:25:17.801Z,21.22
2018-08-19T08:27:46.301Z,21.39
2018-08-19T08:30:14.808Z,21.65
2018-08-19T08:32:45.785Z,21.35
2018-08-19T08:35:14.332Z,21.42
2018-08-19T08:37:43.320Z,21.73
2018-08-19T08:40:12.284Z,21.72
2018-08-19T08:42:42.120Z,21.28
2018-08-19T08:45:12.115Z,21.61
2018-08-19T08:47:40.879Z,21.86
2018-08-19T08:50:10.735Z,21.99
2018-08-19T08:52:39.416Z,21.96
2018-08-19T08:55:10.433Z,21.95
2018-08-19T08:57:39.056Z,20.80
2018-08-19T09:00:09.016Z,21.12
2018-08-19T09:02:37.568Z,21.20
2018-08-19T09:05:08.350Z,21.29
2018-08-19T09:07:36.851Z,21.65
2018-08-19T09:10:05.829Z,21.07
2018-08-19T09:12:42.964Z,21.71
2018-08-19T09:15:11.552Z,22.14
2018-08-19T09:17:40.133Z,22.11
2018-08-19T09:20:09.656Z,22.43
2018-08-19T09:22:38.213Z,22.42
2018-08-19T09:25:07.736Z,22.46
2018-08-19T09:27:37.106Z,22.65
2018-08-19T09:30:05.659Z,22.61
2018-08-19T09:32:35.262Z,22.73
2018-08-19T09:35:03.948Z,22.65
2018-08-19T09:37:32.565Z,22.60
2018-08-19T09:40:01.114Z,22.00
2018-08-19T09:42:29.801Z,22.08
2018-08-19T09:44:58.375Z,22.51
2018-08-19T09:47:26.902Z,22.38
2018-08-19T09:49:55.524Z,22.48
2018-08-19T09:52:24.117Z,22.77
2018-08-19T09:54:52.825Z,22.79
2018-08-19T09:57:21.389Z,22.63
2018-08-19T09:59:50.026Z,23.09
2018-08-19T10:02:18.558Z,23.20
2018-08-19T10:04:47.085Z,23.07
2018-08-19T10:07:15.593Z,22.96
2018-08-19T10:09:44.253Z,22.74
2018-08-19T10:12:14.600Z,22.07
2018-08-19T10:14:43.113Z,22.21
2018-08-19T10:17:11.686Z,21.73
2018-08-19T10:19:40.397Z,22.06
2018-08-19T10:22:08.936Z,22.17
2018-08-19T10:24:37.463Z,22.53
2018-08-19T10:27:08.571Z,22.93
2018-08-19T10:29:37.138Z,23.06
2018-08-19T10:32:06.098Z,23.33
2018-08-19T10:34:37.027Z,23.54
2018-08-19T10:37:06.338Z,22.41
2018-08-19T10:39:34.911Z,23.12
2018-08-19T10:42:17.026Z,23.04
2018-08-19T10:44:46.989Z,23.10
2018-08-19T10:47:15.588Z,23.37
2018-08-19T10:49:48.452Z,23.69
2018-08-19T10:52:23.426Z,22.80
2018-08-19T10:54:51.945Z,23.13
2018-08-19T10:57:21.406Z,23.15
2018-08-19T10:59:54.667Z,23.50
2018-08-19T11:02:23.558Z,23.62
2018-08-19T11:04:54.486Z,23.76
2018-08-19T11:07:23.155Z,23.93
2018-08-19T11:10:22.176Z,24.10
2018-08-19T11:12:53.361Z,23.29
2018-08-19T11:15:40.152Z,23.23
2018-08-19T11:19:12.323Z,23.92
2018-08-19T11:21:40.832Z,24.16
2018-08-19T11:24:15.757Z,24.75
2018-08-19T11:26:46.897Z,23.71
2018-08-19T11:29:15.430Z,23.73
2018-08-19T11:31:44.590Z,24.48
2018-08-19T11:34:13.233Z,24.62
2018-08-19T11:36:44.287Z,25.08
2018-08-19T11:39:14.484Z,25.32
2018-08-19T11:41:43.056Z,25.40
2018-08-19T11:44:14.812Z,25.60
2018-08-19T11:46:43.346Z,24.59
2018-08-19T11:49:19.048Z,24.38
2018-08-19T11:51:54.076Z,25.07
2018-08-19T11:54:23.615Z,24.81
2018-08-19T11:56:59.829Z,23.91
2018-08-19T11:59:36.709Z,23.96
2018-08-19T12:02:08.257Z,23.73
2018-08-19T12:04:36.909Z,23.99
2018-08-19T12:07:05.603Z,23.83
2018-08-19T12:09:34.189Z,24.76
2018-08-19T12:12:02.855Z,25.39
2018-08-19T12:14:36.418Z,25.83
2018-08-19T12:17:11.870Z,26.07
2018-08-19T12:19:42.921Z,26.06
2018-08-19T12:22:12.028Z,26.08
2018-08-19T12:24:42.452Z,25.71
2018-08-19T12:27:12.488Z,25.11
2018-08-19T12:29:41.978Z,26.04
2018-08-19T12:32:15.737Z,25.35
2018-08-19T12:34:49.353Z,26.03
2018-08-19T12:37:19.069Z,26.65
2018-08-19T12:39:47.841Z,26.42
2018-08-19T12:42:16.405Z,25.45
2018-08-19T12:44:48.139Z,26.09
2018-08-19T12:47:22.529Z,26.30
2018-08-19T12:49:52.652Z,27.46
2018-08-19T12:52:23.205Z,27.79
2018-08-19T12:54:56.984Z,28.74
2018-08-19T12:57:25.892Z,28.25
2018-08-19T13:00:02.027Z,28.68
2018-08-19T13:02:31.812Z,27.57
2018-08-19T13:05:00.308Z,28.10
2018-08-19T13:07:28.783Z,26.77
2018-08-19T13:09:57.458Z,27.00
2018-08-19T13:12:25.973Z,26.42
2018-08-19T13:14:54.494Z,27.17
2018-08-19T13:17:23.033Z,28.79
2018-08-19T13:19:56.805Z,28.29
2018-08-19T13:22:25.539Z,28.54
2018-08-19T13:24:54.671Z,27.30
2018-08-19T13:27:23.257Z,28.42
2018-08-19T13:29:51.805Z,28.74
2018-08-19T13:32:20.329Z,28.48
2018-08-19T13:34:49.074Z,30.35
2018-08-19T13:37:17.629Z,29.14
2018-08-19T13:39:46.377Z,29.17
2018-08-19T13:42:15.003Z,28.89
2018-08-19T13:44:43.534Z,29.36
2018-08-19T13:47:12.171Z,30.58
2018-08-19T13:49:40.993Z,30.02
2018-08-19T13:52:09.632Z,29.75
2018-08-19T13:54:51.275Z,30.13
2018-08-19T13:57:19.886Z,30.26
2018-08-19T13:59:48.454Z,29.79
2018-08-19T14:02:17.210Z,30.99
2018-08-19T14:04:45.710Z,29.19
2018-08-19T14:07:14.366Z,30.92
2018-08-19T14:09:42.881Z,31.20
2018-08-19T14:12:11.427Z,30.72
2018-08-19T14:14:40.013Z,31.06
2018-08-19T14:17:08.468Z,30.53
2018-08-19T14:19:36.967Z,31.31
2018-08-19T14:22:05.501Z,30.79
2018-08-19T14:24:34.017Z,31.59
2018-08-19T14:27:02.533Z,31.52
2018-08-19T14:29:31.060Z,32.56
2018-08-19T14:31:59.623Z,32.38
2018-08-19T14:34:28.129Z,30.84
2018-08-19T14:36:56.985Z,30.70
2018-08-19T14:39:25.547Z,31.58
2018-08-19T14:41:54.123Z,30.00
2018-08-19T14:44:22.609Z,29.98
2018-08-19T14:46:52.799Z,28.93
2018-08-19T14:49:21.619Z,28.46
2018-08-19T14:52:01.698Z,30.99
2018-08-19T14:54:30.226Z,29.38
2018-08-19T14:56:58.790Z,31.20
2018-08-19T14:59:27.313Z,28.41
2018-08-19T15:01:55.933Z,30.15
2018-08-19T15:04:24.511Z,29.12
2018-08-19T15:06:53.113Z,28.68
2018-08-19T15:09:28.308Z,28.69
2018-08-19T15:12:05.246Z,28.94
2018-08-19T15:14:34.266Z,29.96
2018-08-19T15:17:02.767Z,30.43
2018-08-19T15:19:31.321Z,30.63
2018-08-19T15:21:59.833Z,29.34
2018-08-19T15:24:28.338Z,28.77
2018-08-19T15:26:56.878Z,28.91
2018-08-19T15:29:29.616Z,30.39
2018-08-19T15:31:59.379Z,30.76
2018-08-19T15:34:28.370Z,32.07
2018-08-19T15:36:56.970Z,29.84
2018-08-19T15:39:29.191Z,29.87
2018-08-19T15:41:58.000Z,30.21
2018-08-19T15:44:26.495Z,29.36
2018-08-19T15:46:55.067Z,30.35
2018-08-19T15:49:24.401Z,30.74
2018-08-19T15:51:53.198Z,30.05
2018-08-19T15:54:21.783Z,28.69
2018-08-19T15:56:50.378Z,29.76
2018-08-19T15:59:18.989Z,29.96
2018-08-19T16:01:47.605Z,29.09
2018-08-19T16:04:20.872Z,28.41
2018-08-19T16:06:51.074Z,29.37
2018-08-19T16:09:24.091Z,28.76
2018-08-19T16:11:53.065Z,29.92
2018-08-19T16:14:25.447Z,29.79
2018-08-19T16:16:54.603Z,27.76
2018-08-19T16:19:23.333Z,26.66
2018-08-19T16:21:53.204Z,27.85
2018-08-19T16:24:21.807Z,28.52
2018-08-19T16:26:50.320Z,28.16
2018-08-19T16:29:18.866Z,28.17
2018-08-19T16:31:47.756Z,29.08
2018-08-19T16:34:16.350Z,28.11
2018-08-19T16:36:44.924Z,28.17
2018-08-19T16:39:15.127Z,28.54
2018-08-19T16:41:43.985Z,28.71
2018-08-19T16:44:12.538Z,28.96
2018-08-19T16:46:41.445Z,27.47
2018-08-19T16:49:10.105Z,27.40
2018-08-19T16:51:38.637Z,27.25
2018-08-19T16:54:07.708Z,27.21
2018-08-19T16:56:36.189Z,25.79
2018-08-19T16:59:04.902Z,26.08
2018-08-19T17:01:33.409Z,25.25
2018-08-19T17:04:01.954Z,24.75
2018-08-19T17:06:30.517Z,25.14
2018-08-19T17:08:59.055Z,24.98
2018-08-19T17:11:27.703Z,24.30
2018-08-19T17:13:56.605Z,24.43
2018-08-19T17:16:26.978Z,24.59
2018-08-19T17:18:55.491Z,24.20
2018-08-19T17:21:24.053Z,24.17
2018-08-19T17:23:52.907Z,24.35
2018-08-19T17:26:23.599Z,24.41
2018-08-19T17:28:52.336Z,24.21
2018-08-19T17:31:21.134Z,24.20
2018-08-19T17:33:49.753Z,24.04
2018-08-19T17:36:39.734Z,24.08
2018-08-19T17:39:12.889Z,23.77
2018-08-19T17:41:41.443Z,23.98
2018-08-19T17:44:10.018Z,23.93
2018-08-19T17:46:38.608Z,23.99
2018-08-19T17:49:12.692Z,23.63
2018-08-19T17:51:41.240Z,23.57
2018-08-19T17:54:40.213Z,23.58
2018-08-19T17:57:08.785Z,23.60
2018-08-19T17:59:37.360Z,23.69
2018-08-19T18:02:05.896Z,23.85
2018-08-19T18:04:39.472Z,23.79
2018-08-19T18:07:11.008Z,23.56
2018-08-19T18:09:43.098Z,23.31
2018-08-19T18:12:11.647Z,23.55
2018-08-19T18:14:40.193Z,23.44
2018-08-19T18:17:08.731Z,23.35
2018-08-19T18:19:37.267Z,23.46
2018-08-19T18:22:05.894Z,23.29
2018-08-19T18:24:34.398Z,23.23
2018-08-19T18:27:02.961Z,23.14
2018-08-19T18:29:39.882Z,23.03
2018-08-19T18:32:08.531Z,22.99
2018-08-19T18:34:39.267Z,23.00
2018-08-19T18:37:08.296Z,22.88
2018-08-19T18:39:37.141Z,22.71
2018-08-19T18:42:06.016Z,22.76
2018-08-19T18:44:34.567Z,22.79
2018-08-19T18:47:03.568Z,22.71
2018-08-19T18:49:32.233Z,22.66
2018-08-19T18:52:06.013Z,22.56
2018-08-19T18:54:34.643Z,22.66
2018-08-19T18:57:06.134Z,22.60
2018-08-19T18:59:35.033Z,22.65
2018-08-19T19:02:04.542Z,22.40
2018-08-19T19:04:33.135Z,22.41
2018-08-19T19:07:01.673Z,22.62
2018-08-19T19:09:36.178Z,22.58
2018-08-19T19:12:05.115Z,22.48
2018-08-19T19:14:34.574Z,22.55
2018-08-19T19:17:03.151Z,22.57
2018-08-19T19:19:35.920Z,22.49
2018-08-19T19:22:04.604Z,22.52
2018-08-19T19:24:38.751Z,22.69
2018-08-19T19:27:08.078Z,22.60
2018-08-19T19:29:36.708Z,22.44
2018-08-19T19:32:16.135Z,22.36
2018-08-19T19:34:44.732Z,22.37
2018-08-19T19:37:13.373Z,22.49
2018-08-19T19:39:41.978Z,22.41
2018-08-19T19:42:11.526Z,22.34
2018-08-19T19:44:40.225Z,22.42
2018-08-19T19:47:09.834Z,22.39
2018-08-19T19:49:44.044Z,22.52
2018-08-19T19:52:12.725Z,22.38
2018-08-19T19:54:41.304Z,22.45
2018-08-19T19:57:09.847Z,22.29
2018-08-19T19:59:38.362Z,22.41
2018-08-19T20:02:07.079Z,22.23
2018-08-19T20:04:35.972Z,22.33
2018-08-19T20:07:04.593Z,22.41
2018-08-19T20:09:35.840Z,22.32
2018-08-19T20:12:04.560Z,22.42
2018-08-19T20:14:37.474Z,22.30
2018-08-19T20:17:05.981Z,22.25
2018-08-19T20:19:34.465Z,22.13
2018-08-19T20:22:03.243Z,22.15
2018-08-19T20:24:31.791Z,22.21
2018-08-19T20:27:00.283Z,22.04
2018-08-19T20:29:28.831Z,22.21
2018-08-19T20:31:57.310Z,22.20
2018-08-19T20:34:25.856Z,22.06
2018-08-19T20:36:54.374Z,22.12
2018-08-19T20:39:22.884Z,21.91
2018-08-19T20:41:51.409Z,22.00
2018-08-19T20:44:20.005Z,21.92
2018-08-19T20:46:52.843Z,21.96
2018-08-19T20:49:21.394Z,22.02
2018-08-19T20:51:53.161Z,21.79
2018-08-19T20:54:21.890Z,21.91
2018-08-19T20:56:53.277Z,21.65
2018-08-19T20:59:37.100Z,21.62
2018-08-19T21:02:07.148Z,21.49
2018-08-19T21:04:39.670Z,21.45
2018-08-19T21:07:08.315Z,21.40
2018-08-19T21:09:36.960Z,21.37
2018-08-19T21:12:09.000Z,21.39
2018-08-19T21:14:37.775Z,21.32
2018-08-19T21:17:06.826Z,21.28
2018-08-19T21:19:37.129Z,21.31
2018-08-19T21:22:05.816Z,21.23
2018-08-19T21:24:34.729Z,21.27
2018-08-19T21:27:04.099Z,21.33
2018-08-19T21:29:33.022Z,21.25
2018-08-19T21:32:01.607Z,21.11
2018-08-19T21:34:30.502Z,21.25
2018-08-19T21:37:02.141Z,21.14
2018-08-19T21:39:30.693Z,21.14
2018-08-19T21:42:02.293Z,21.13
2018-08-19T21:44:30.986Z,21.03
2018-08-19T21:46:59.548Z,21.14
2018-08-19T21:49:28.030Z,21.19
2018-08-19T21:51:56.614Z,21.07
2018-08-19T21:54:25.144Z,21.05
2018-08-19T21:56:53.649Z,20.92
2018-08-19T21:59:23.811Z,21.04
2018-08-19T22:01:57.744Z,21.02
2018-08-19T22:04:26.436Z,20.98
2018-08-19T22:06:54.933Z,20.99
2018-08-19T22:09:34.142Z,20.98
2018-08-19T22:12:03.076Z,21.10
2018-08-19T22:14:32.310Z,21.07
2018-08-19T22:17:06.293Z,20.98
2018-08-19T22:19:34.789Z,20.92
2018-08-19T22:22:03.710Z,21.02
2018-08-19T22:24:32.352Z,20.87
2018-08-19T22:27:09.120Z,20.75
2018-08-19T22:29:37.661Z,20.73
2018-08-19T22:32:06.492Z,20.66
2018-08-19T22:34:35.004Z,20.72
2018-08-19T22:37:03.926Z,20.68
2018-08-19T22:39:32.460Z,20.67
2018-08-19T22:42:00.956Z,20.64
2018-08-19T22:44:29.465Z,20.66
2018-08-19T22:46:57.996Z,20.68
2018-08-19T22:49:27.960Z,20.48
2018-08-19T22:52:09.508Z,20.59
2018-08-19T22:54:38.744Z,20.60
2018-08-19T22:57:07.316Z,20.45
2018-08-19T22:59:35.816Z,20.58
2018-08-19T23:02:08.280Z,20.51
2018-08-19T23:04:40.409Z,20.62
2018-08-19T23:07:08.979Z,20.47
2018-08-19T23:09:37.475Z,20.54
2018-08-19T23:12:06.096Z,20.47
2018-08-19T23:14:46.001Z,20.59
2018-08-19T23:17:14.690Z,20.53
2018-08-19T23:19:43.219Z,20.43
2018-08-19T23:22:11.774Z,20.38
2018-08-19T23:24:40.277Z,20.33
2018-08-19T23:27:08.865Z,20.34
2018-08-19T23:29:37.731Z,20.37
2018-08-19T23:32:06.437Z,20.26
2018-08-19T23:34:34.967Z,20.16
2018-08-19T23:37:03.996Z,20.01
2018-08-19T23:39:32.681Z,19.62
2018-08-19T23:42:01.226Z,19.64
2018-08-19T23:44:29.762Z,19.65
2018-08-19T23:46:58.324Z,19.47
2018-08-19T23:49:26.789Z,19.62
2018-08-19T23:51:55.355Z,19.63
2018-08-19T23:54:23.845Z,19.70
2018-08-19T23:56:52.378Z,19.62
2018-08-19T23:59:26.828Z,19.44
